sensor_id;sensor_type;location;lat;lon;timestamp;P1;durP1;ratioP1;P2;durP2;ratioP2
20443;SDS011;10381;53.730;10.010;2023-04-07T00:02:52;30.93;;;15.03;;
20443;SDS011;10381;53.730;10.010;2023-04-07T00:06:53;31.33;;;15.27;;
20443;SDS011;10381;53.730;10.010;2023-04-07T00:10:53;34.63;;;15.77;;
20443;SDS011;10381;53.730;10.010;2023-04-07T00:14:53;27.33;;;16.27;;
20443;SDS011;10381;53.730;10.010;2023-04-07T00:18:54;31.52;;;15.85;;
20443;SDS011;10381;53.730;10.010;2023-04-07T00:22:54;31.15;;;16.88;;
20443;SDS011;10381;53.730;10.010;2023-04-07T00:26:54;28.63;;;16.03;;
20443;SDS011;10381;53.730;10.010;2023-04-07T00:30:55;35.90;;;16.13;;
20443;SDS011;10381;53.730;10.010;2023-04-07T00:34:56;27.40;;;15.80;;
20443;SDS011;10381;53.730;10.010;2023-04-07T00:38:56;39.58;;;16.83;;
20443;SDS011;10381;53.730;10.010;2023-04-07T00:42:56;35.27;;;15.73;;
20443;SDS011;10381;53.730;10.010;2023-04-07T00:46:57;26.98;;;15.18;;
20443;SDS011;10381;53.730;10.010;2023-04-07T00:50:58;31.90;;;15.07;;
20443;SDS011;10381;53.730;10.010;2023-04-07T00:54:58;27.20;;;15.93;;
20443;SDS011;10381;53.730;10.010;2023-04-07T00:58:59;30.85;;;15.93;;
20443;SDS011;10381;53.730;10.010;2023-04-07T01:03:07;26.70;;;15.02;;
20443;SDS011;10381;53.730;10.010;2023-04-07T01:07:31;36.17;;;15.95;;
20443;SDS011;10381;53.730;10.010;2023-04-07T01:15:59;27.33;;;14.30;;
20443;SDS011;10381;53.730;10.010;2023-04-07T01:20:04;29.05;;;15.65;;
20443;SDS011;10381;53.730;10.010;2023-04-07T01:32:40;25.90;;;14.90;;
20443;SDS011;10381;53.730;10.010;2023-04-07T01:36:44;31.65;;;15.55;;
20443;SDS011;10381;53.730;10.010;2023-04-07T01:40:46;32.85;;;14.75;;
20443;SDS011;10381;53.730;10.010;2023-04-07T01:44:47;29.33;;;15.07;;
20443;SDS011;10381;53.730;10.010;2023-04-07T01:48:50;25.00;;;13.77;;
20443;SDS011;10381;53.730;10.010;2023-04-07T01:52:50;27.10;;;13.63;;
20443;SDS011;10381;53.730;10.010;2023-04-07T01:56:52;23.30;;;12.98;;
20443;SDS011;10381;53.730;10.010;2023-04-07T02:00:52;21.90;;;12.57;;
20443;SDS011;10381;53.730;10.010;2023-04-07T02:04:56;20.77;;;13.52;;
20443;SDS011;10381;53.730;10.010;2023-04-07T02:09:01;24.55;;;12.77;;
20443;SDS011;10381;53.730;10.010;2023-04-07T02:13:06;23.08;;;13.80;;
20443;SDS011;10381;53.730;10.010;2023-04-07T02:17:09;23.65;;;13.57;;
20443;SDS011;10381;53.730;10.010;2023-04-07T02:21:10;23.63;;;13.43;;
20443;SDS011;10381;53.730;10.010;2023-04-07T02:25:29;24.17;;;13.15;;
20443;SDS011;10381;53.730;10.010;2023-04-07T02:29:31;24.80;;;13.82;;
20443;SDS011;10381;53.730;10.010;2023-04-07T02:33:31;21.85;;;12.95;;
20443;SDS011;10381;53.730;10.010;2023-04-07T02:37:31;29.93;;;14.67;;
20443;SDS011;10381;53.730;10.010;2023-04-07T02:41:32;22.92;;;12.82;;
20443;SDS011;10381;53.730;10.010;2023-04-07T02:45:32;24.02;;;13.38;;
20443;SDS011;10381;53.730;10.010;2023-04-07T02:49:32;21.47;;;12.63;;
20443;SDS011;10381;53.730;10.010;2023-04-07T02:53:33;16.23;;;11.45;;
20443;SDS011;10381;53.730;10.010;2023-04-07T02:57:33;23.27;;;12.30;;
20443;SDS011;10381;53.730;10.010;2023-04-07T03:01:33;23.70;;;13.27;;
20443;SDS011;10381;53.730;10.010;2023-04-07T03:05:35;21.20;;;12.73;;
20443;SDS011;10381;53.730;10.010;2023-04-07T03:09:35;21.47;;;12.43;;
20443;SDS011;10381;53.730;10.010;2023-04-07T03:13:35;18.33;;;11.47;;
20443;SDS011;10381;53.730;10.010;2023-04-07T03:17:35;23.53;;;12.27;;
20443;SDS011;10381;53.730;10.010;2023-04-07T03:21:36;24.02;;;13.30;;
20443;SDS011;10381;53.730;10.010;2023-04-07T03:25:37;23.58;;;13.13;;
20443;SDS011;10381;53.730;10.010;2023-04-07T03:29:37;19.77;;;12.50;;
20443;SDS011;10381;53.730;10.010;2023-04-07T03:33:38;18.47;;;12.43;;
20443;SDS011;10381;53.730;10.010;2023-04-07T03:37:38;22.40;;;12.65;;
20443;SDS011;10381;53.730;10.010;2023-04-07T03:41:38;20.43;;;12.10;;
20443;SDS011;10381;53.730;10.010;2023-04-07T03:45:39;20.13;;;13.18;;
20443;SDS011;10381;53.730;10.010;2023-04-07T03:49:39;22.77;;;12.80;;
20443;SDS011;10381;53.730;10.010;2023-04-07T03:53:39;20.57;;;13.53;;
20443;SDS011;10381;53.730;10.010;2023-04-07T03:57:40;19.27;;;12.73;;
20443;SDS011;10381;53.730;10.010;2023-04-07T04:01:40;24.15;;;13.13;;
20443;SDS011;10381;53.730;10.010;2023-04-07T04:05:40;18.90;;;11.47;;
20443;SDS011;10381;53.730;10.010;2023-04-07T04:09:41;17.33;;;12.10;;
20443;SDS011;10381;53.730;10.010;2023-04-07T04:13:41;21.37;;;12.43;;
20443;SDS011;10381;53.730;10.010;2023-04-07T04:17:41;18.48;;;12.70;;
20443;SDS011;10381;53.730;10.010;2023-04-07T04:21:41;21.80;;;12.43;;
20443;SDS011;10381;53.730;10.010;2023-04-07T04:25:42;19.60;;;12.77;;
20443;SDS011;10381;53.730;10.010;2023-04-07T04:29:42;20.23;;;12.67;;
20443;SDS011;10381;53.730;10.010;2023-04-07T04:33:42;20.80;;;12.70;;
20443;SDS011;10381;53.730;10.010;2023-04-07T04:37:43;21.55;;;13.55;;
20443;SDS011;10381;53.730;10.010;2023-04-07T04:41:43;26.07;;;14.43;;
20443;SDS011;10381;53.730;10.010;2023-04-07T04:45:44;21.30;;;13.60;;
20443;SDS011;10381;53.730;10.010;2023-04-07T04:49:44;22.60;;;13.67;;
20443;SDS011;10381;53.730;10.010;2023-04-07T04:53:45;24.58;;;14.95;;
20443;SDS011;10381;53.730;10.010;2023-04-07T04:57:45;25.43;;;14.53;;
20443;SDS011;10381;53.730;10.010;2023-04-07T05:01:45;25.20;;;14.00;;
20443;SDS011;10381;53.730;10.010;2023-04-07T05:05:46;21.63;;;14.07;;
20443;SDS011;10381;53.730;10.010;2023-04-07T05:09:47;24.52;;;13.23;;
20443;SDS011;10381;53.730;10.010;2023-04-07T05:13:47;20.53;;;13.20;;
20443;SDS011;10381;53.730;10.010;2023-04-07T05:17:47;25.10;;;12.27;;
20443;SDS011;10381;53.730;10.010;2023-04-07T05:21:49;26.45;;;14.35;;
20443;SDS011;10381;53.730;10.010;2023-04-07T05:25:49;18.55;;;11.63;;
20443;SDS011;10381;53.730;10.010;2023-04-07T05:29:50;20.23;;;11.93;;
20443;SDS011;10381;53.730;10.010;2023-04-07T05:33:50;17.27;;;11.33;;
20443;SDS011;10381;53.730;10.010;2023-04-07T05:37:50;19.50;;;11.37;;
20443;SDS011;10381;53.730;10.010;2023-04-07T05:41:51;19.35;;;12.00;;
20443;SDS011;10381;53.730;10.010;2023-04-07T05:45:51;22.27;;;10.77;;
20443;SDS011;10381;53.730;10.010;2023-04-07T05:49:51;16.43;;;11.13;;
20443;SDS011;10381;53.730;10.010;2023-04-07T05:53:52;18.75;;;11.60;;
20443;SDS011;10381;53.730;10.010;2023-04-07T05:57:52;15.60;;;11.23;;
20443;SDS011;10381;53.730;10.010;2023-04-07T06:01:52;20.73;;;10.70;;
20443;SDS011;10381;53.730;10.010;2023-04-07T06:05:52;16.70;;;10.80;;
20443;SDS011;10381;53.730;10.010;2023-04-07T06:09:53;17.73;;;10.13;;
20443;SDS011;10381;53.730;10.010;2023-04-07T06:13:53;15.33;;;10.20;;
20443;SDS011;10381;53.730;10.010;2023-04-07T06:17:53;21.90;;;11.57;;
20443;SDS011;10381;53.730;10.010;2023-04-07T06:21:53;13.63;;;9.87;;
20443;SDS011;10381;53.730;10.010;2023-04-07T06:25:54;20.65;;;11.30;;
20443;SDS011;10381;53.730;10.010;2023-04-07T06:29:55;19.03;;;11.87;;
20443;SDS011;10381;53.730;10.010;2023-04-07T06:33:55;18.60;;;11.98;;
20443;SDS011;10381;53.730;10.010;2023-04-07T06:37:56;20.60;;;12.37;;
20443;SDS011;10381;53.730;10.010;2023-04-07T06:41:56;24.58;;;12.38;;
20443;SDS011;10381;53.730;10.010;2023-04-07T06:45:57;23.55;;;11.60;;
20443;SDS011;10381;53.730;10.010;2023-04-07T06:49:57;22.60;;;12.07;;
20443;SDS011;10381;53.730;10.010;2023-04-07T06:53:57;16.97;;;11.10;;
20443;SDS011;10381;53.730;10.010;2023-04-07T06:57:57;16.53;;;11.60;;
20443;SDS011;10381;53.730;10.010;2023-04-07T07:01:58;22.43;;;10.83;;
20443;SDS011;10381;53.730;10.010;2023-04-07T07:05:58;28.47;;;11.07;;
20443;SDS011;10381;53.730;10.010;2023-04-07T07:09:59;15.88;;;10.15;;
20443;SDS011;10381;53.730;10.010;2023-04-07T07:13:59;15.40;;;9.40;;
20443;SDS011;10381;53.730;10.010;2023-04-07T07:18:00;18.33;;;10.27;;
20443;SDS011;10381;53.730;10.010;2023-04-07T07:22:00;13.57;;;9.93;;
20443;SDS011;10381;53.730;10.010;2023-04-07T07:26:02;18.58;;;10.07;;
20443;SDS011;10381;53.730;10.010;2023-04-07T07:30:03;17.23;;;10.40;;
20443;SDS011;10381;53.730;10.010;2023-04-07T07:34:05;13.68;;;9.27;;
20443;SDS011;10381;53.730;10.010;2023-04-07T07:38:05;16.30;;;9.82;;
20443;SDS011;10381;53.730;10.010;2023-04-07T07:42:06;15.55;;;10.18;;
20443;SDS011;10381;53.730;10.010;2023-04-07T07:46:06;15.00;;;10.20;;
20443;SDS011;10381;53.730;10.010;2023-04-07T07:50:06;17.80;;;10.07;;
20443;SDS011;10381;53.730;10.010;2023-04-07T07:54:07;19.25;;;9.40;;
20443;SDS011;10381;53.730;10.010;2023-04-07T07:58:08;20.23;;;10.82;;
20443;SDS011;10381;53.730;10.010;2023-04-07T08:02:08;14.73;;;9.23;;
20443;SDS011;10381;53.730;10.010;2023-04-07T08:06:09;23.05;;;10.90;;
20443;SDS011;10381;53.730;10.010;2023-04-07T08:10:10;14.55;;;10.27;;
20443;SDS011;10381;53.730;10.010;2023-04-07T08:14:11;19.73;;;10.85;;
20443;SDS011;10381;53.730;10.010;2023-04-07T08:18:11;15.17;;;9.90;;
20443;SDS011;10381;53.730;10.010;2023-04-07T08:22:13;16.20;;;9.37;;
20443;SDS011;10381;53.730;10.010;2023-04-07T08:26:31;14.70;;;9.60;;
20443;SDS011;10381;53.730;10.010;2023-04-07T08:30:31;14.52;;;9.60;;
20443;SDS011;10381;53.730;10.010;2023-04-07T08:34:32;17.30;;;10.80;;
20443;SDS011;10381;53.730;10.010;2023-04-07T08:38:32;13.63;;;9.23;;
20443;SDS011;10381;53.730;10.010;2023-04-07T08:42:33;15.53;;;9.33;;
20443;SDS011;10381;53.730;10.010;2023-04-07T08:46:34;17.00;;;9.80;;
20443;SDS011;10381;53.730;10.010;2023-04-07T08:50:37;23.13;;;9.68;;
20443;SDS011;10381;53.730;10.010;2023-04-07T08:54:39;20.20;;;9.63;;
20443;SDS011;10381;53.730;10.010;2023-04-07T08:58:39;28.07;;;10.00;;
20443;SDS011;10381;53.730;10.010;2023-04-07T09:02:41;14.63;;;9.20;;
20443;SDS011;10381;53.730;10.010;2023-04-07T09:06:44;18.92;;;10.38;;
20443;SDS011;10381;53.730;10.010;2023-04-07T09:10:44;19.90;;;10.63;;
20443;SDS011;10381;53.730;10.010;2023-04-07T09:14:45;18.20;;;11.07;;
20443;SDS011;10381;53.730;10.010;2023-04-07T09:18:45;14.68;;;9.82;;
20443;SDS011;10381;53.730;10.010;2023-04-07T09:22:46;28.60;;;10.40;;
20443;SDS011;10381;53.730;10.010;2023-04-07T09:26:46;17.83;;;10.13;;
20443;SDS011;10381;53.730;10.010;2023-04-07T09:30:53;17.57;;;10.63;;
20443;SDS011;10381;53.730;10.010;2023-04-07T09:34:57;22.02;;;10.88;;
20443;SDS011;10381;53.730;10.010;2023-04-07T09:38:59;19.27;;;11.00;;
20443;SDS011;10381;53.730;10.010;2023-04-07T09:43:13;17.33;;;11.02;;
20443;SDS011;10381;53.730;10.010;2023-04-07T09:47:16;22.65;;;11.02;;
20443;SDS011;10381;53.730;10.010;2023-04-07T09:51:16;13.05;;;9.48;;
20443;SDS011;10381;53.730;10.010;2023-04-07T09:55:20;24.08;;;10.45;;
20443;SDS011;10381;53.730;10.010;2023-04-07T09:59:21;17.50;;;10.23;;
20443;SDS011;10381;53.730;10.010;2023-04-07T10:03:22;14.25;;;9.05;;
20443;SDS011;10381;53.730;10.010;2023-04-07T10:07:23;18.85;;;9.68;;
20443;SDS011;10381;53.730;10.010;2023-04-07T10:11:23;15.85;;;10.30;;
20443;SDS011;10381;53.730;10.010;2023-04-07T10:15:23;15.52;;;10.35;;
20443;SDS011;10381;53.730;10.010;2023-04-07T10:19:24;21.05;;;10.25;;
20443;SDS011;10381;53.730;10.010;2023-04-07T10:27:41;18.77;;;9.93;;
20443;SDS011;10381;53.730;10.010;2023-04-07T10:31:49;16.35;;;10.35;;
20443;SDS011;10381;53.730;10.010;2023-04-07T10:36:03;16.77;;;10.82;;
20443;SDS011;10381;53.730;10.010;2023-04-07T10:49:07;16.70;;;9.90;;
20443;SDS011;10381;53.730;10.010;2023-04-07T10:53:12;20.42;;;10.77;;
20443;SDS011;10381;53.730;10.010;2023-04-07T10:57:14;21.67;;;9.60;;
20443;SDS011;10381;53.730;10.010;2023-04-07T11:01:16;22.88;;;9.82;;
20443;SDS011;10381;53.730;10.010;2023-04-07T11:05:20;17.65;;;9.88;;
20443;SDS011;10381;53.730;10.010;2023-04-07T11:09:22;13.75;;;9.48;;
20443;SDS011;10381;53.730;10.010;2023-04-07T11:13:22;16.23;;;9.77;;
20443;SDS011;10381;53.730;10.010;2023-04-07T11:17:22;15.57;;;9.47;;
20443;SDS011;10381;53.730;10.010;2023-04-07T11:21:23;17.10;;;9.67;;
20443;SDS011;10381;53.730;10.010;2023-04-07T11:25:23;12.30;;;9.00;;
20443;SDS011;10381;53.730;10.010;2023-04-07T11:29:27;17.33;;;9.77;;
20443;SDS011;10381;53.730;10.010;2023-04-07T11:33:29;14.82;;;8.77;;
20443;SDS011;10381;53.730;10.010;2023-04-07T11:37:31;10.80;;;8.35;;
20443;SDS011;10381;53.730;10.010;2023-04-07T11:41:31;25.98;;;7.95;;
20443;SDS011;10381;53.730;10.010;2023-04-07T11:45:32;15.88;;;8.55;;
20443;SDS011;10381;53.730;10.010;2023-04-07T11:49:32;11.27;;;7.90;;
20443;SDS011;10381;53.730;10.010;2023-04-07T11:53:34;10.70;;;7.40;;
20443;SDS011;10381;53.730;10.010;2023-04-07T11:57:37;11.85;;;7.30;;
20443;SDS011;10381;53.730;10.010;2023-04-07T12:01:37;11.95;;;7.05;;
20443;SDS011;10381;53.730;10.010;2023-04-07T12:05:41;9.57;;;6.97;;
20443;SDS011;10381;53.730;10.010;2023-04-07T12:09:42;10.93;;;7.68;;
20443;SDS011;10381;53.730;10.010;2023-04-07T12:13:42;8.10;;;6.60;;
20443;SDS011;10381;53.730;10.010;2023-04-07T12:17:43;8.97;;;6.97;;
20443;SDS011;10381;53.730;10.010;2023-04-07T12:21:48;8.93;;;7.22;;
20443;SDS011;10381;53.730;10.010;2023-04-07T12:25:48;7.57;;;6.77;;
20443;SDS011;10381;53.730;10.010;2023-04-07T12:29:48;7.53;;;6.63;;
20443;SDS011;10381;53.730;10.010;2023-04-07T12:33:49;7.17;;;6.23;;
20443;SDS011;10381;53.730;10.010;2023-04-07T12:37:49;9.57;;;7.18;;
20443;SDS011;10381;53.730;10.010;2023-04-07T12:41:51;8.02;;;6.28;;
20443;SDS011;10381;53.730;10.010;2023-04-07T12:45:52;10.63;;;6.43;;
20443;SDS011;10381;53.730;10.010;2023-04-07T12:49:52;9.57;;;6.87;;
20443;SDS011;10381;53.730;10.010;2023-04-07T12:53:52;6.30;;;5.80;;
20443;SDS011;10381;53.730;10.010;2023-04-07T12:57:53;7.60;;;6.13;;
20443;SDS011;10381;53.730;10.010;2023-04-07T13:01:54;8.63;;;6.10;;
20443;SDS011;10381;53.730;10.010;2023-04-07T13:05:55;7.00;;;5.75;;
20443;SDS011;10381;53.730;10.010;2023-04-07T13:09:55;7.82;;;6.85;;
20443;SDS011;10381;53.730;10.010;2023-04-07T13:13:56;9.98;;;6.28;;
20443;SDS011;10381;53.730;10.010;2023-04-07T13:17:56;11.38;;;6.20;;
20443;SDS011;10381;53.730;10.010;2023-04-07T13:21:57;6.78;;;6.13;;
20443;SDS011;10381;53.730;10.010;2023-04-07T13:25:57;6.50;;;5.97;;
20443;SDS011;10381;53.730;10.010;2023-04-07T13:29:58;7.47;;;6.77;;
20443;SDS011;10381;53.730;10.010;2023-04-07T13:33:58;7.33;;;6.60;;
20443;SDS011;10381;53.730;10.010;2023-04-07T13:37:58;6.13;;;5.63;;
20443;SDS011;10381;53.730;10.010;2023-04-07T13:41:59;8.97;;;6.60;;
20443;SDS011;10381;53.730;10.010;2023-04-07T13:45:59;10.15;;;6.72;;
20443;SDS011;10381;53.730;10.010;2023-04-07T13:50:00;6.65;;;6.05;;
20443;SDS011;10381;53.730;10.010;2023-04-07T13:54:01;8.57;;;7.57;;
20443;SDS011;10381;53.730;10.010;2023-04-07T13:58:01;7.97;;;7.18;;
20443;SDS011;10381;53.730;10.010;2023-04-07T14:02:02;12.43;;;7.38;;
20443;SDS011;10381;53.730;10.010;2023-04-07T14:06:02;8.57;;;7.10;;
20443;SDS011;10381;53.730;10.010;2023-04-07T14:10:03;10.82;;;8.05;;
20443;SDS011;10381;53.730;10.010;2023-04-07T14:14:03;14.32;;;8.35;;
20443;SDS011;10381;53.730;10.010;2023-04-07T14:18:03;11.35;;;8.38;;
20443;SDS011;10381;53.730;10.010;2023-04-07T14:22:05;10.57;;;8.57;;
20443;SDS011;10381;53.730;10.010;2023-04-07T14:26:08;10.90;;;8.57;;
20443;SDS011;10381;53.730;10.010;2023-04-07T14:30:09;14.82;;;9.38;;
20443;SDS011;10381;53.730;10.010;2023-04-07T14:34:11;12.57;;;9.20;;
20443;SDS011;10381;53.730;10.010;2023-04-07T14:38:11;11.40;;;8.40;;
20443;SDS011;10381;53.730;10.010;2023-04-07T14:42:12;15.32;;;9.23;;
20443;SDS011;10381;53.730;10.010;2023-04-07T14:46:12;13.93;;;9.03;;
20443;SDS011;10381;53.730;10.010;2023-04-07T14:50:13;12.73;;;9.40;;
20443;SDS011;10381;53.730;10.010;2023-04-07T14:54:14;15.90;;;9.47;;
20443;SDS011;10381;53.730;10.010;2023-04-07T14:58:14;12.57;;;9.30;;
20443;SDS011;10381;53.730;10.010;2023-04-07T15:02:14;13.70;;;10.80;;
20443;SDS011;10381;53.730;10.010;2023-04-07T15:06:15;13.00;;;11.40;;
20443;SDS011;10381;53.730;10.010;2023-04-07T15:10:15;14.43;;;11.18;;
20443;SDS011;10381;53.730;10.010;2023-04-07T15:14:17;13.35;;;10.43;;
20443;SDS011;10381;53.730;10.010;2023-04-07T15:18:17;16.50;;;13.00;;
20443;SDS011;10381;53.730;10.010;2023-04-07T15:22:17;19.03;;;13.53;;
20443;SDS011;10381;53.730;10.010;2023-04-07T15:26:18;17.27;;;11.60;;
20443;SDS011;10381;53.730;10.010;2023-04-07T15:30:18;14.30;;;10.63;;
20443;SDS011;10381;53.730;10.010;2023-04-07T15:34:18;16.03;;;12.30;;
20443;SDS011;10381;53.730;10.010;2023-04-07T15:38:18;21.23;;;14.97;;
20443;SDS011;10381;53.730;10.010;2023-04-07T15:42:19;20.52;;;13.65;;
20443;SDS011;10381;53.730;10.010;2023-04-07T15:46:19;23.08;;;14.82;;
20443;SDS011;10381;53.730;10.010;2023-04-07T15:50:20;19.45;;;16.23;;
20443;SDS011;10381;53.730;10.010;2023-04-07T15:54:20;21.70;;;16.83;;
20443;SDS011;10381;53.730;10.010;2023-04-07T15:58:21;19.23;;;17.27;;
20443;SDS011;10381;53.730;10.010;2023-04-07T16:02:21;20.33;;;17.47;;
20443;SDS011;10381;53.730;10.010;2023-04-07T16:06:21;21.58;;;18.60;;
20443;SDS011;10381;53.730;10.010;2023-04-07T16:10:21;18.70;;;16.87;;
20443;SDS011;10381;53.730;10.010;2023-04-07T16:14:22;20.50;;;18.00;;
20443;SDS011;10381;53.730;10.010;2023-04-07T16:18:22;24.52;;;18.48;;
20443;SDS011;10381;53.730;10.010;2023-04-07T16:22:23;21.30;;;18.90;;
20443;SDS011;10381;53.730;10.010;2023-04-07T16:26:24;26.25;;;20.23;;
20443;SDS011;10381;53.730;10.010;2023-04-07T16:30:25;23.17;;;20.35;;
20443;SDS011;10381;53.730;10.010;2023-04-07T16:34:25;23.45;;;20.13;;
20443;SDS011;10381;53.730;10.010;2023-04-07T16:38:25;28.23;;;21.63;;
20443;SDS011;10381;53.730;10.010;2023-04-07T16:42:28;30.42;;;22.45;;
20443;SDS011;10381;53.730;10.010;2023-04-07T16:46:28;25.07;;;21.77;;
20443;SDS011;10381;53.730;10.010;2023-04-07T16:50:28;28.33;;;20.73;;
20443;SDS011;10381;53.730;10.010;2023-04-07T16:54:29;23.88;;;21.30;;
20443;SDS011;10381;53.730;10.010;2023-04-07T16:58:29;25.42;;;22.83;;
20443;SDS011;10381;53.730;10.010;2023-04-07T17:02:30;27.55;;;24.15;;
20443;SDS011;10381;53.730;10.010;2023-04-07T17:06:30;26.20;;;23.70;;
20443;SDS011;10381;53.730;10.010;2023-04-07T17:10:30;29.47;;;26.40;;
20443;SDS011;10381;53.730;10.010;2023-04-07T17:14:30;32.17;;;27.37;;
20443;SDS011;10381;53.730;10.010;2023-04-07T17:18:31;29.40;;;26.50;;
20443;SDS011;10381;53.730;10.010;2023-04-07T17:22:32;37.38;;;29.27;;
20443;SDS011;10381;53.730;10.010;2023-04-07T17:26:32;47.33;;;33.83;;
20443;SDS011;10381;53.730;10.010;2023-04-07T17:30:34;44.15;;;35.65;;
20443;SDS011;10381;53.730;10.010;2023-04-07T17:34:35;64.63;;;42.50;;
20443;SDS011;10381;53.730;10.010;2023-04-07T17:38:36;39.10;;;35.22;;
20443;SDS011;10381;53.730;10.010;2023-04-07T17:42:36;42.30;;;34.43;;
20443;SDS011;10381;53.730;10.010;2023-04-07T17:46:37;40.78;;;35.38;;
20443;SDS011;10381;53.730;10.010;2023-04-07T17:50:37;44.50;;;39.77;;
20443;SDS011;10381;53.730;10.010;2023-04-07T17:54:38;41.03;;;36.75;;
20443;SDS011;10381;53.730;10.010;2023-04-07T17:58:38;42.10;;;37.50;;
20443;SDS011;10381;53.730;10.010;2023-04-07T18:02:39;44.35;;;39.55;;
20443;SDS011;10381;53.730;10.010;2023-04-07T18:06:40;47.63;;;40.45;;
20443;SDS011;10381;53.730;10.010;2023-04-07T18:10:40;65.73;;;43.10;;
20443;SDS011;10381;53.730;10.010;2023-04-07T18:14:41;50.20;;;42.65;;
20443;SDS011;10381;53.730;10.010;2023-04-07T18:18:42;47.40;;;42.33;;
20443;SDS011;10381;53.730;10.010;2023-04-07T18:22:42;60.70;;;43.25;;
20443;SDS011;10381;53.730;10.010;2023-04-07T18:26:43;60.25;;;45.58;;
20443;SDS011;10381;53.730;10.010;2023-04-07T18:30:43;65.35;;;48.58;;
20443;SDS011;10381;53.730;10.010;2023-04-07T18:34:46;56.75;;;46.53;;
20443;SDS011;10381;53.730;10.010;2023-04-07T18:38:47;55.55;;;46.08;;
20443;SDS011;10381;53.730;10.010;2023-04-07T18:42:47;49.00;;;43.50;;
20443;SDS011;10381;53.730;10.010;2023-04-07T18:46:48;60.50;;;45.30;;
20443;SDS011;10381;53.730;10.010;2023-04-07T18:50:49;64.67;;;48.67;;
20443;SDS011;10381;53.730;10.010;2023-04-07T18:54:51;57.60;;;41.88;;
20443;SDS011;10381;53.730;10.010;2023-04-07T18:58:51;53.35;;;42.33;;
20443;SDS011;10381;53.730;10.010;2023-04-07T19:02:51;55.95;;;42.60;;
20443;SDS011;10381;53.730;10.010;2023-04-07T19:06:52;53.45;;;43.63;;
20443;SDS011;10381;53.730;10.010;2023-04-07T19:10:53;60.33;;;45.42;;
20443;SDS011;10381;53.730;10.010;2023-04-07T19:14:53;68.23;;;47.17;;
20443;SDS011;10381;53.730;10.010;2023-04-07T19:18:55;48.28;;;41.85;;
20443;SDS011;10381;53.730;10.010;2023-04-07T19:22:56;54.22;;;42.55;;
20443;SDS011;10381;53.730;10.010;2023-04-07T19:26:56;44.42;;;37.95;;
20443;SDS011;10381;53.730;10.010;2023-04-07T19:30:56;41.47;;;35.78;;
20443;SDS011;10381;53.730;10.010;2023-04-07T19:34:57;40.95;;;34.55;;
20443;SDS011;10381;53.730;10.010;2023-04-07T19:38:57;39.58;;;33.30;;
20443;SDS011;10381;53.730;10.010;2023-04-07T19:43:01;36.80;;;32.35;;
20443;SDS011;10381;53.730;10.010;2023-04-07T19:47:01;34.60;;;30.77;;
20443;SDS011;10381;53.730;10.010;2023-04-07T19:51:01;35.72;;;30.98;;
20443;SDS011;10381;53.730;10.010;2023-04-07T19:55:02;36.47;;;32.78;;
20443;SDS011;10381;53.730;10.010;2023-04-07T19:59:02;39.42;;;34.35;;
20443;SDS011;10381;53.730;10.010;2023-04-07T20:03:03;37.60;;;33.83;;
20443;SDS011;10381;53.730;10.010;2023-04-07T20:07:04;43.78;;;35.72;;
20443;SDS011;10381;53.730;10.010;2023-04-07T20:11:04;45.08;;;40.60;;
20443;SDS011;10381;53.730;10.010;2023-04-07T20:15:10;46.35;;;41.55;;
20443;SDS011;10381;53.730;10.010;2023-04-07T20:19:10;49.60;;;44.30;;
20443;SDS011;10381;53.730;10.010;2023-04-07T20:23:11;50.17;;;44.90;;
20443;SDS011;10381;53.730;10.010;2023-04-07T20:27:11;56.70;;;47.45;;
20443;SDS011;10381;53.730;10.010;2023-04-07T20:31:12;52.72;;;47.13;;
20443;SDS011;10381;53.730;10.010;2023-04-07T20:35:12;54.60;;;49.07;;
20443;SDS011;10381;53.730;10.010;2023-04-07T20:39:13;49.85;;;44.28;;
20443;SDS011;10381;53.730;10.010;2023-04-07T20:43:13;58.10;;;47.85;;
20443;SDS011;10381;53.730;10.010;2023-04-07T20:47:16;62.80;;;51.00;;
20443;SDS011;10381;53.730;10.010;2023-04-07T20:51:17;61.80;;;49.60;;
20443;SDS011;10381;53.730;10.010;2023-04-07T20:55:17;62.83;;;51.43;;
20443;SDS011;10381;53.730;10.010;2023-04-07T20:59:17;62.67;;;50.08;;
20443;SDS011;10381;53.730;10.010;2023-04-07T21:03:18;71.50;;;49.20;;
20443;SDS011;10381;53.730;10.010;2023-04-07T21:07:18;67.77;;;50.17;;
20443;SDS011;10381;53.730;10.010;2023-04-07T21:11:18;71.03;;;51.80;;
20443;SDS011;10381;53.730;10.010;2023-04-07T21:15:18;74.37;;;51.57;;
20443;SDS011;10381;53.730;10.010;2023-04-07T21:19:19;71.20;;;49.47;;
20443;SDS011;10381;53.730;10.010;2023-04-07T21:23:19;63.95;;;49.97;;
20443;SDS011;10381;53.730;10.010;2023-04-07T21:27:20;62.35;;;49.13;;
20443;SDS011;10381;53.730;10.010;2023-04-07T21:31:20;65.83;;;50.73;;
20443;SDS011;10381;53.730;10.010;2023-04-07T21:35:25;64.50;;;48.60;;
20443;SDS011;10381;53.730;10.010;2023-04-07T21:39:27;67.20;;;48.63;;
20443;SDS011;10381;53.730;10.010;2023-04-07T21:43:27;68.10;;;49.27;;
20443;SDS011;10381;53.730;10.010;2023-04-07T21:47:27;60.00;;;49.20;;
20443;SDS011;10381;53.730;10.010;2023-04-07T21:51:28;60.13;;;48.60;;
20443;SDS011;10381;53.730;10.010;2023-04-07T21:55:28;71.53;;;49.60;;
20443;SDS011;10381;53.730;10.010;2023-04-07T21:59:28;72.65;;;50.08;;
20443;SDS011;10381;53.730;10.010;2023-04-07T22:03:29;62.30;;;47.60;;
20443;SDS011;10381;53.730;10.010;2023-04-07T22:07:29;61.35;;;46.63;;
20443;SDS011;10381;53.730;10.010;2023-04-07T22:11:30;67.18;;;46.15;;
20443;SDS011;10381;53.730;10.010;2023-04-07T22:15:30;59.73;;;47.93;;
20443;SDS011;10381;53.730;10.010;2023-04-07T22:19:30;58.63;;;48.50;;
20443;SDS011;10381;53.730;10.010;2023-04-07T22:23:31;51.90;;;45.40;;
20443;SDS011;10381;53.730;10.010;2023-04-07T22:27:31;56.85;;;45.42;;
20443;SDS011;10381;53.730;10.010;2023-04-07T22:31:32;54.28;;;45.83;;
20443;SDS011;10381;53.730;10.010;2023-04-07T22:35:32;56.27;;;44.57;;
20443;SDS011;10381;53.730;10.010;2023-04-07T22:39:32;53.78;;;45.60;;
20443;SDS011;10381;53.730;10.010;2023-04-07T22:43:32;58.60;;;46.67;;
20443;SDS011;10381;53.730;10.010;2023-04-07T22:47:33;53.22;;;44.47;;
20443;SDS011;10381;53.730;10.010;2023-04-07T22:51:33;63.92;;;47.83;;
20443;SDS011;10381;53.730;10.010;2023-04-07T22:55:34;52.00;;;44.20;;
20443;SDS011;10381;53.730;10.010;2023-04-07T22:59:34;60.35;;;45.97;;
20443;SDS011;10381;53.730;10.010;2023-04-07T23:03:35;58.00;;;45.90;;
20443;SDS011;10381;53.730;10.010;2023-04-07T23:07:36;65.73;;;45.87;;
20443;SDS011;10381;53.730;10.010;2023-04-07T23:11:36;59.17;;;45.65;;
20443;SDS011;10381;53.730;10.010;2023-04-07T23:15:37;51.93;;;46.27;;
20443;SDS011;10381;53.730;10.010;2023-04-07T23:19:37;58.60;;;46.90;;
20443;SDS011;10381;53.730;10.010;2023-04-07T23:23:37;60.87;;;49.23;;
20443;SDS011;10381;53.730;10.010;2023-04-07T23:27:38;56.50;;;48.25;;
20443;SDS011;10381;53.730;10.010;2023-04-07T23:31:38;53.37;;;47.07;;
20443;SDS011;10381;53.730;10.010;2023-04-07T23:35:39;61.53;;;48.70;;
20443;SDS011;10381;53.730;10.010;2023-04-07T23:39:39;53.40;;;45.27;;
20443;SDS011;10381;53.730;10.010;2023-04-07T23:43:39;48.23;;;42.90;;